Time;durP1;ratioP1;P1;durP2;ratioP2;P2;SDS_P1;SDS_P2;PMS_P1;PMS_P2;Temp;Humidity;BMP_temperature;BMP_pressure;BME280_temperature;BME280_humidity;BME280_pressure;Samples;Min_cycle;Max_cycle;Signal;HPM_P1;HPM_P2
2023/07/26 00:00:04;;;;;;;12.20;6.60;;;;;;;20.75;86.79;97221.44;105156;1267;74857;-18
2023/07/26 00:02:39;;;;;;;10.20;6.10;;;;;;;20.54;87.17;97228.80;105150;1267;72500;-18
2023/07/26 00:05:07;;;;;;;9.40;5.60;;;;;;;20.21;89.13;97219.27;105769;1254;61611;-20
2023/07/26 00:07:34;;;;;;;8.40;6.20;;;;;;;20.41;89.07;97215.27;105555;1257;61067;-21
2023/07/26 00:10:00;;;;;;;10.00;6.30;;;;;;;20.57;87.68;97222.52;105869;1255;72937;-21
2023/07/26 00:12:28;;;;;;;10.90;6.50;;;;;;;20.44;87.77;97233.56;105928;1254;74305;-21
2023/07/26 00:14:55;;;;;;;8.50;5.20;;;;;;;20.16;89.52;97235.23;105641;1257;72549;-18
2023/07/26 00:17:21;;;;;;;10.60;6.00;;;;;;;20.43;89.10;97234.02;105842;1255;61100;-18
2023/07/26 00:19:48;;;;;;;11.50;6.70;;;;;;;20.59;87.55;97239.58;105888;1262;61186;-18
2023/07/26 00:22:15;;;;;;;16.00;7.80;;;;;;;20.26;89.25;97246.04;105937;1254;73090;-18
2023/07/26 00:24:42;;;;;;;11.10;6.10;;;;;;;20.04;90.52;97254.58;105820;1255;74285;-18
2023/07/26 00:27:08;;;;;;;9.80;6.20;;;;;;;20.13;90.76;97255.91;105860;1253;72660;-18
2023/07/26 00:29:35;;;;;;;11.60;6.40;;;;;;;20.41;89.13;97248.00;105847;1256;61010;-18
2023/07/26 00:32:03;;;;;;;9.80;6.60;;;;;;;20.38;88.65;97249.52;105867;1254;61122;-18
2023/07/26 00:34:30;;;;;;;10.70;6.20;;;;;;;20.18;89.16;97248.20;105727;1253;72910;-19
2023/07/26 00:37:00;;;;;;;9.20;5.60;;;;;;;19.94;90.85;97256.23;105669;1260;74337;-18
2023/07/26 00:39:27;;;;;;;10.40;6.40;;;;;;;20.26;89.83;97253.45;105697;1254;73169;-18
2023/07/26 00:41:53;;;;;;;11.00;6.70;;;;;;;20.33;89.20;97258.98;105825;1257;61157;-18
2023/07/26 00:44:20;;;;;;;9.80;7.00;;;;;;;20.20;89.66;97260.03;105683;1260;61108;-18
2023/07/26 00:46:48;;;;;;;9.60;5.80;;;;;;;20.03;90.46;97258.13;105681;1254;73553;-18
2023/07/26 00:49:15;;;;;;;8.50;6.20;;;;;;;20.26;90.20;97255.92;105658;1260;73004;-18
2023/07/26 00:51:42;;;;;;;10.80;7.40;;;;;;;20.40;89.28;97253.52;105735;1251;72653;-20
2023/07/26 00:54:08;;;;;;;12.90;7.00;;;;;;;20.23;89.93;97251.23;105893;1254;61058;-21
2023/07/26 00:56:35;;;;;;;13.90;7.30;;;;;;;20.05;90.30;97249.24;105501;1259;61199;-21
2023/07/26 00:59:02;;;;;;;9.70;5.50;;;;;;;19.90;90.76;97247.58;105657;1259;73053;-21
2023/07/26 01:01:33;;;;;;;9.90;6.40;;;;;;;20.17;90.94;97245.40;105768;1254;74314;-18
2023/07/26 01:04:00;;;;;;;10.30;7.10;;;;;;;20.34;89.93;97246.02;105695;1254;72606;-18
2023/07/26 01:06:41;;;;;;;12.00;7.70;;;;;;;20.17;90.40;97252.19;105589;1254;61045;-19
2023/07/26 01:09:30;;;;;;;10.30;6.10;;;;;;;19.91;91.81;97255.48;105788;1257;61157;-18
2023/07/26 01:12:05;;;;;;;13.90;7.10;;;;;;;20.01;92.30;97251.33;105603;1255;72999;-18
2023/07/26 01:14:58;;;;;;;10.70;7.20;;;;;;;20.23;90.87;97256.23;105595;1255;74330;-19
2023/07/26 01:17:25;;;;;;;12.00;8.80;;;;;;;20.15;90.77;97249.36;105903;1256;71425;-18
2023/07/26 01:19:53;;;;;;;9.50;6.00;;;;;;;19.96;91.65;97247.40;105697;1254;61804;-18
2023/07/26 01:22:20;;;;;;;13.40;6.80;;;;;;;20.22;91.23;97257.27;105870;1256;61243;-18
2023/07/26 01:24:47;;;;;;;11.50;6.90;;;;;;;20.35;90.07;97257.87;105657;1252;73011;-19
2023/07/26 01:27:14;;;;;;;11.90;8.70;;;;;;;20.21;89.89;97261.23;105858;1254;74841;-19
2023/07/26 01:29:40;;;;;;;8.10;5.60;;;;;;;20.00;91.06;97262.08;105886;1253;72702;-19
2023/07/26 01:32:08;;;;;;;10.70;7.50;;;;;;;20.06;92.23;97265.96;105717;1252;61172;-19
2023/07/26 01:34:35;;;;;;;12.30;6.70;;;;;;;20.26;90.36;97268.15;105514;1260;61689;-18
2023/07/26 01:37:02;;;;;;;13.40;7.30;;;;;;;20.09;90.94;97277.02;105647;1251;73058;-19
2023/07/26 01:39:29;;;;;;;8.50;5.50;;;;;;;19.91;92.28;97282.74;105612;1255;74877;-19
2023/07/26 01:41:56;;;;;;;11.00;6.80;;;;;;;20.15;92.05;97285.28;105695;1251;72575;-19
2023/07/26 01:44:22;;;;;;;9.50;6.70;;;;;;;20.32;90.50;97287.98;105690;1255;61148;-19
2023/07/26 01:46:52;;;;;;;12.50;7.40;;;;;;;20.15;90.73;97287.61;105629;1257;61135;-21
2023/07/26 01:49:21;;;;;;;10.00;5.30;;;;;;;20.06;91.31;97291.23;105858;1255;73390;-19
2023/07/26 01:51:48;;;;;;;8.50;5.80;;;;;;;20.29;90.27;97292.79;105637;1254;74749;-19
2023/07/26 01:54:14;;;;;;;11.10;6.30;;;;;;;20.55;88.28;97290.48;105645;1251;72714;-19
2023/07/26 01:56:41;;;;;;;12.00;6.40;;;;;;;20.23;88.84;97295.08;105624;1255;61397;-19
2023/07/26 01:59:09;;;;;;;10.10;5.50;;;;;;;19.86;90.99;97303.73;105539;1257;61198;-19
2023/07/26 02:01:36;;;;;;;11.00;5.40;;;;;;;20.08;90.07;97307.54;105689;1254;72827;-19
2023/07/26 02:04:03;;;;;;;10.40;5.40;;;;;;;20.19;88.94;97315.20;105609;1257;74119;-19
2023/07/26 02:06:31;;;;;;;9.30;5.80;;;;;;;20.00;90.26;97334.85;105666;1254;72917;-19
2023/07/26 02:08:58;;;;;;;7.20;4.80;;;;;;;19.70;93.21;97345.16;105627;1254;61730;-19
2023/07/26 02:11:25;;;;;;;7.90;5.10;;;;;;;20.00;91.39;97334.36;105841;1257;61196;-19
2023/07/26 02:13:54;;;;;;;11.30;5.10;;;;;;;20.20;88.45;97324.94;105914;1255;73063;-19
2023/07/26 02:16:21;;;;;;;10.40;4.60;;;;;;;20.05;87.90;97338.06;105923;1251;74325;-19
2023/07/26 02:18:48;;;;;;;7.00;3.70;;;;;;;19.85;88.68;97358.08;105636;1255;73186;-19
2023/07/26 02:21:16;;;;;;;5.70;3.50;;;;;;;20.01;87.51;97357.35;105711;1254;60998;-19
2023/07/26 02:23:43;;;;;;;6.10;3.80;;;;;;;20.08;86.02;97346.16;105900;1256;61152;-19
2023/07/26 02:26:10;;;;;;;6.60;3.20;;;;;;;19.81;86.13;97355.52;105921;1253;73063;-19
2023/07/26 02:28:36;;;;;;;4.00;1.80;;;;;;;19.48;87.10;97360.21;105940;1254;74078;-19
2023/07/26 02:31:03;;;;;;;4.90;1.90;;;;;;;19.55;86.73;97374.13;105853;1254;72628;-19
2023/07/26 02:33:30;;;;;;;5.00;1.90;;;;;;;19.66;85.68;97383.56;105668;1257;61233;-19
2023/07/26 02:35:59;;;;;;;2.60;1.80;;;;;;;19.47;85.36;97384.77;105623;1257;61206;-19
2023/07/26 02:38:26;;;;;;;3.00;1.10;;;;;;;19.22;86.14;97385.88;105731;1254;72983;-20
2023/07/26 02:40:53;;;;;;;1.60;1.40;;;;;;;19.22;86.54;97398.10;105670;1253;74272;-19
2023/07/26 02:43:19;;;;;;;1.40;1.10;;;;;;;19.47;85.15;97419.44;105691;1255;72395;-21
2023/07/26 02:46:06;;;;;;;3.70;1.60;;;;;;;19.39;85.16;97417.66;105719;1253;61146;-21
2023/07/26 02:48:33;;;;;;;7.90;1.30;;;;;;;19.16;86.44;97415.27;105676;1255;61087;-22
2023/07/26 02:51:00;;;;;;;4.00;1.50;;;;;;;19.18;87.09;97426.84;105604;1254;72813;-22
2023/07/26 02:53:28;;;;;;;3.60;1.10;;;;;;;19.39;85.91;97430.33;105486;1257;74413;-22
2023/07/26 02:55:55;;;;;;;2.50;1.20;;;;;;;19.39;85.70;97427.41;105842;1254;72523;-22
2023/07/26 02:58:21;;;;;;;4.70;2.20;;;;;;;19.27;86.20;97425.44;105914;1253;61218;-22
2023/07/26 03:00:55;;;;;;;2.60;1.10;;;;;;;19.08;87.20;97416.56;105868;1256;61097;-22
2023/07/26 03:03:22;;;;;;;2.50;1.40;;;;;;;19.39;86.58;97417.42;105629;1253;73856;-22
2023/07/26 03:05:49;;;;;;;5.70;1.40;;;;;;;19.47;85.40;97418.86;105639;1257;74899;-22
2023/07/26 03:08:16;;;;;;;2.30;1.50;;;;;;;19.30;85.83;97411.48;105864;1256;72569;-22
2023/07/26 03:10:42;;;;;;;1.10;1.00;;;;;;;19.14;87.14;97420.14;105898;1254;61921;-23
2023/07/26 03:13:09;;;;;;;1.60;1.10;;;;;;;19.42;86.50;97416.25;105899;1257;61114;-23
2023/07/26 03:15:39;;;;;;;1.80;1.10;;;;;;;19.58;85.64;97414.67;105850;1253;73740;-22
2023/07/26 03:18:06;;;;;;;3.00;1.20;;;;;;;19.48;85.58;97416.45;105658;1257;75725;-22
2023/07/26 03:20:33;;;;;;;1.90;1.40;;;;;;;19.30;86.19;97420.04;105634;1256;72734;-23
2023/07/26 03:23:00;;;;;;;1.20;0.90;;;;;;;19.15;87.61;97421.52;105726;1253;61905;-22
2023/07/26 03:25:27;;;;;;;4.60;1.00;;;;;;;19.55;86.53;97425.09;105856;1256;61133;-22
2023/07/26 03:27:53;;;;;;;1.20;1.10;;;;;;;19.63;85.45;97422.63;105751;1255;73826;-23
2023/07/26 03:30:20;;;;;;;2.20;1.20;;;;;;;19.53;85.59;97422.03;105920;1254;74464;-23
2023/07/26 03:32:47;;;;;;;2.20;1.00;;;;;;;19.33;86.60;97428.67;105876;1254;72439;-22
2023/07/26 03:35:14;;;;;;;2.20;1.10;;;;;;;19.31;87.73;97428.71;105873;1251;61001;-23
2023/07/26 03:37:41;;;;;;;2.00;1.10;;;;;;;19.68;86.48;97424.39;105651;1256;61152;-22
2023/07/26 03:40:08;;;;;;;7.60;1.20;;;;;;;19.70;85.98;97420.69;105547;1253;73849;-23
2023/07/26 03:42:36;;;;;;;2.10;1.20;;;;;;;19.51;86.74;97414.58;105518;1258;74384;-23
2023/07/26 03:45:02;;;;;;;3.30;1.20;;;;;;;19.33;87.83;97418.66;105686;1251;72738;-23
2023/07/26 03:47:29;;;;;;;1.80;1.20;;;;;;;19.59;86.97;97417.80;105591;1257;61076;-23
2023/07/26 03:49:56;;;;;;;2.30;1.10;;;;;;;19.80;85.98;97410.76;105531;1257;62921;-23
2023/07/26 03:52:24;;;;;;;3.20;1.10;;;;;;;19.73;86.01;97406.98;105704;1251;73594;-22
2023/07/26 03:54:50;;;;;;;2.00;1.10;;;;;;;19.55;86.89;97402.28;105873;1254;74502;-23
2023/07/26 03:57:17;;;;;;;3.40;1.20;;;;;;;19.54;87.85;97401.87;105670;1257;73200;-22
2023/07/26 03:59:44;;;;;;;2.10;1.20;;;;;;;19.96;85.92;97393.10;105852;1254;61086;-23
2023/07/26 04:02:11;;;;;;;2.50;1.30;;;;;;;20.06;84.56;97381.30;105907;1256;61109;-22
2023/07/26 04:04:38;;;;;;;7.00;1.60;;;;;;;19.87;85.43;97384.89;105899;1251;73891;-23
2023/07/26 04:07:05;;;;;;;1.40;1.20;;;;;;;19.74;86.33;97391.54;105542;1253;74085;-22
2023/07/26 04:09:32;;;;;;;1.60;1.10;;;;;;;19.63;87.87;97398.23;105658;1253;72777;-22
2023/07/26 04:11:59;;;;;;;4.70;1.40;;;;;;;20.06;86.63;97399.79;105563;1257;61203;-23
2023/07/26 04:14:26;;;;;;;5.00;1.70;;;;;;;20.24;84.88;97401.02;105810;1255;61087;-23
2023/07/26 04:16:53;;;;;;;3.30;1.40;;;;;;;20.13;84.96;97401.98;105884;1254;73680;-23
2023/07/26 04:19:20;;;;;;;4.10;1.40;;;;;;;19.90;86.12;97396.13;105866;1256;73396;-23
2023/07/26 04:21:47;;;;;;;5.00;1.40;;;;;;;19.71;87.58;97401.77;105888;1256;73179;-23
2023/07/26 04:24:13;;;;;;;2.50;1.60;;;;;;;19.97;86.65;97404.44;105783;1253;61060;-22
2023/07/26 04:26:40;;;;;;;7.30;2.20;;;;;;;19.99;86.21;97395.02;105708;1254;61134;-23
2023/07/26 04:29:07;;;;;;;3.60;1.60;;;;;;;19.87;87.12;97381.88;105829;1253;73807;-23
2023/07/26 04:31:34;;;;;;;3.10;1.30;;;;;;;19.78;88.04;97381.70;105867;1254;74859;-22
2023/07/26 04:34:00;;;;;;;3.90;1.60;;;;;;;20.02;87.77;97400.16;105705;1253;72759;-22
2023/07/26 04:36:28;;;;;;;3.40;1.90;;;;;;;20.53;85.31;97409.33;105607;1253;61119;-23
2023/07/26 04:38:55;;;;;;;2.60;2.10;;;;;;;20.57;83.95;97428.58;105322;1260;61169;-23
2023/07/26 04:41:22;;;;;;;3.40;1.90;;;;;;;20.46;84.78;97444.09;105611;1251;74565;-22
2023/07/26 04:43:51;;;;;;;3.40;1.60;;;;;;;20.28;85.01;97455.24;105770;1255;74234;-23
2023/07/26 04:46:18;;;;;;;2.70;1.90;;;;;;;20.49;83.54;97461.38;105918;1254;72748;-23
2023/07/26 04:48:45;;;;;;;2.70;2.00;;;;;;;20.61;82.62;97467.92;105840;1253;61154;-23
2023/07/26 04:51:13;;;;;;;4.10;1.90;;;;;;;20.46;83.10;97485.01;105657;1254;61241;-23
2023/07/26 04:53:40;;;;;;;2.30;1.90;;;;;;;20.24;84.41;97493.19;105752;1253;73882;-23
2023/07/26 04:56:06;;;;;;;2.00;1.70;;;;;;;20.05;85.73;97483.70;105578;1256;73833;-22
2023/07/26 04:58:33;;;;;;;5.40;1.90;;;;;;;20.31;84.54;97472.27;105620;1252;71665;-23
2023/07/26 05:01:00;;;;;;;2.80;2.10;;;;;;;20.50;83.32;97468.52;105576;1251;61045;-23
2023/07/26 05:03:27;;;;;;;4.50;2.20;;;;;;;20.38;83.43;97481.96;105723;1256;61176;-22
2023/07/26 05:05:54;;;;;;;4.10;2.40;;;;;;;19.99;85.01;97480.41;105586;1254;73806;-22
2023/07/26 05:08:21;;;;;;;2.70;1.80;;;;;;;19.83;86.12;97474.91;105780;1256;74330;-22
2023/07/26 05:10:52;;;;;;;3.70;2.80;;;;;;;20.03;84.57;97482.27;105883;1253;72526;-23
2023/07/26 05:13:19;;;;;;;2.10;1.70;;;;;;;20.38;83.03;97487.66;105566;1253;61119;-23
2023/07/26 05:15:46;;;;;;;4.50;2.60;;;;;;;20.51;82.47;97499.98;105756;1257;61145;-23
2023/07/26 05:18:14;;;;;;;6.50;2.70;;;;;;;20.63;82.63;97518.71;105934;1252;74359;-23
2023/07/26 05:20:42;;;;;;;5.30;1.90;;;;;;;20.82;81.43;97523.52;105689;1256;74601;-23
2023/07/26 05:23:09;;;;;;;3.00;2.30;;;;;;;21.37;77.68;97510.30;105459;1254;71196;-23
2023/07/26 05:25:39;;;;;;;5.00;2.60;;;;;;;21.67;75.76;97488.61;105657;1256;61143;-23
2023/07/26 05:28:05;;;;;;;6.30;2.20;;;;;;;21.52;75.75;97481.79;105686;1251;61206;-23
2023/07/26 05:30:37;;;;;;;3.90;2.60;;;;;;;21.42;76.80;97496.81;105863;1253;73842;-24
2023/07/26 05:33:05;;;;;;;6.90;2.30;;;;;;;21.40;77.28;97523.80;105523;1260;73093;-23
2023/07/26 05:35:31;;;;;;;4.40;2.30;;;;;;;21.47;76.46;97523.52;105729;1256;71191;-23
2023/07/26 05:37:58;;;;;;;3.20;2.50;;;;;;;21.98;74.31;97528.60;105920;1254;61102;-23
2023/07/26 05:40:25;;;;;;;3.70;2.50;;;;;;;22.24;72.46;97538.69;105941;1256;61177;-23
2023/07/26 05:42:52;;;;;;;5.30;2.50;;;;;;;22.28;72.14;97547.54;105907;1253;74182;-23
2023/07/26 05:45:19;;;;;;;4.70;2.10;;;;;;;21.99;72.05;97549.63;105738;1256;74539;-23
2023/07/26 05:47:46;;;;;;;2.60;2.00;;;;;;;21.56;72.31;97548.86;105604;1253;72619;-22
2023/07/26 05:50:14;;;;;;;3.10;2.10;;;;;;;21.44;73.04;97552.58;105688;1253;61114;-23
2023/07/26 05:52:41;;;;;;;3.80;2.20;;;;;;;21.27;73.79;97562.90;105710;1252;61135;-23
2023/07/26 05:55:12;;;;;;;4.30;2.20;;;;;;;21.28;74.72;97573.30;105500;1253;73775;-23
2023/07/26 05:57:38;;;;;;;3.50;1.90;;;;;;;21.67;73.49;97571.60;105691;1254;74353;-23
2023/07/26 06:00:07;;;;;;;3.70;2.20;;;;;;;21.75;72.24;97569.77;105765;1253;71416;-23
2023/07/26 06:02:38;;;;;;;3.10;2.20;;;;;;;21.54;72.39;97569.01;105519;1256;61167;-23
2023/07/26 06:05:05;;;;;;;4.20;2.10;;;;;;;21.33;73.43;97581.48;105690;1254;61183;-23
2023/07/26 06:07:32;;;;;;;3.90;2.30;;;;;;;21.26;73.61;97596.30;105659;1253;72900;-23
2023/07/26 06:09:59;;;;;;;4.30;2.50;;;;;;;21.18;73.95;97610.19;105896;1256;74089;-23
2023/07/26 06:12:26;;;;;;;2.70;1.90;;;;;;;21.09;75.06;97622.53;105799;1256;72786;-23
2023/07/26 06:14:53;;;;;;;3.00;2.00;;;;;;;21.29;75.30;97632.20;105848;1251;61142;-23
2023/07/26 06:17:20;;;;;;;3.20;2.30;;;;;;;21.46;73.17;97634.55;105648;1256;61134;-23
2023/07/26 06:19:47;;;;;;;3.20;2.50;;;;;;;21.27;72.72;97625.97;105819;1252;74386;-23
2023/07/26 06:22:14;;;;;;;3.70;2.60;;;;;;;20.99;73.47;97621.91;105756;1254;74371;-23
2023/07/26 06:24:41;;;;;;;3.70;2.70;;;;;;;20.69;74.26;97616.92;105795;1253;72628;-23
2023/07/26 06:27:08;;;;;;;3.60;2.50;;;;;;;20.53;75.32;97614.41;105784;1253;61136;-23
2023/07/26 06:29:36;;;;;;;3.00;1.90;;;;;;;20.45;76.61;97602.84;105744;1256;61097;-23
2023/07/26 06:32:04;;;;;;;2.10;1.80;;;;;;;20.91;75.52;97572.73;105940;1251;74243;-23
2023/07/26 06:34:31;;;;;;;4.60;2.30;;;;;;;21.37;74.09;97525.05;105622;1253;74683;-23
2023/07/26 06:36:59;;;;;;;3.90;2.50;;;;;;;21.48;73.82;97514.38;105603;1251;72518;-23
2023/07/26 06:39:29;;;;;;;3.40;2.50;;;;;;;21.40;74.61;97524.43;105784;1253;61058;-23
2023/07/26 06:41:55;;;;;;;2.90;2.50;;;;;;;21.28;75.13;97522.06;105561;1253;61142;-23
2023/07/26 06:44:22;;;;;;;5.20;2.80;;;;;;;21.08;76.17;97514.91;105816;1253;73715;-23
2023/07/26 06:46:49;;;;;;;6.90;2.30;;;;;;;20.85;76.87;97499.16;105812;1255;74697;-23
2023/07/26 06:49:16;;;;;;;4.20;2.30;;;;;;;20.86;77.15;97497.21;105776;1256;73018;-23
2023/07/26 06:51:43;;;;;;;4.10;2.70;;;;;;;21.17;75.61;97490.98;105813;1251;61127;-23
2023/07/26 06:54:10;;;;;;;5.40;3.10;;;;;;;21.21;75.03;97499.58;105921;1255;61189;-23
2023/07/26 06:56:37;;;;;;;3.50;2.70;;;;;;;20.92;76.04;97515.66;105933;1253;74437;-23
2023/07/26 06:59:09;;;;;;;3.80;2.90;;;;;;;20.78;77.26;97533.80;105601;1254;74174;-23
2023/07/26 07:01:36;;;;;;;5.50;3.60;;;;;;;20.56;77.96;97548.80;105668;1254;72711;-22
2023/07/26 07:04:03;;;;;;;3.70;3.10;;;;;;;20.44;78.56;97549.51;105832;1252;61147;-23
2023/07/26 07:06:41;;;;;;;3.40;2.50;;;;;;;20.60;79.62;97556.05;105517;1258;61091;-23
2023/07/26 07:09:08;;;;;;;4.60;2.80;;;;;;;21.18;76.96;97577.42;105648;1251;72476;-23
2023/07/26 07:11:35;;;;;;;4.20;3.10;;;;;;;21.69;74.89;97596.17;105881;1251;74523;-23
2023/07/26 07:14:02;;;;;;;6.50;3.20;;;;;;;21.89;72.45;97603.43;105763;1254;72613;-24
2023/07/26 07:16:29;;;;;;;4.40;2.70;;;;;;;21.91;71.97;97614.96;105632;1254;61077;-22
2023/07/26 07:18:57;;;;;;;5.30;2.80;;;;;;;21.80;71.10;97632.91;105269;1260;61075;-22
2023/07/26 07:21:23;;;;;;;3.30;2.90;;;;;;;21.63;71.16;97646.33;105717;1253;74359;-22
2023/07/26 07:23:52;;;;;;;5.40;2.90;;;;;;;21.50;71.65;97641.57;105926;1253;72870;-22
2023/07/26 07:26:20;;;;;;;4.00;3.40;;;;;;;21.41;72.08;97640.94;105800;1253;72674;-22
2023/07/26 07:28:47;;;;;;;4.10;2.90;;;;;;;21.39;72.76;97644.08;105606;1252;61155;-22
2023/07/26 07:31:13;;;;;;;4.50;2.20;;;;;;;21.55;73.45;97654.20;105731;1256;61167;-22
2023/07/26 07:33:41;;;;;;;5.60;2.70;;;;;;;22.14;71.74;97650.72;105876;1253;73831;-22
2023/07/26 07:36:09;;;;;;;3.10;2.60;;;;;;;22.57;69.92;97649.87;105741;1254;74657;-22
2023/07/26 07:38:36;;;;;;;4.40;2.50;;;;;;;22.67;69.58;97658.23;105838;1253;72658;-22
2023/07/26 07:41:03;;;;;;;3.20;2.70;;;;;;;22.53;69.64;97662.20;105510;1253;61102;-22
2023/07/26 07:43:30;;;;;;;6.20;2.80;;;;;;;22.34;69.72;97663.37;105858;1253;61215;-22
2023/07/26 07:45:57;;;;;;;2.70;2.50;;;;;;;22.04;70.70;97668.09;105899;1253;73797;-22
2023/07/26 07:48:26;;;;;;;3.50;2.70;;;;;;;22.04;70.91;97668.57;105806;1253;74355;-22
2023/07/26 07:50:54;;;;;;;3.60;2.80;;;;;;;21.95;70.76;97671.64;105712;1254;72664;-22
2023/07/26 07:53:22;;;;;;;3.70;2.90;;;;;;;21.80;70.16;97675.48;105592;1253;61147;-22
2023/07/26 07:55:49;;;;;;;3.50;2.50;;;;;;;21.73;70.12;97679.71;105598;1259;61210;-22
2023/07/26 07:58:16;;;;;;;5.90;2.50;;;;;;;22.12;70.17;97675.39;105971;1253;73827;-22
2023/07/26 08:00:43;;;;;;;4.50;2.60;;;;;;;22.39;69.68;97679.13;105901;1253;74261;-22
2023/07/26 08:03:10;;;;;;;5.50;2.90;;;;;;;22.23;69.55;97673.76;105950;1254;72526;-22
2023/07/26 08:05:38;;;;;;;4.60;2.70;;;;;;;22.08;69.31;97671.45;105916;1253;61084;-22
2023/07/26 08:08:08;;;;;;;4.50;2.70;;;;;;;21.86;70.13;97668.75;105693;1257;61181;-22
2023/07/26 08:10:38;;;;;;;3.30;2.60;;;;;;;21.60;70.97;97661.86;105760;1251;73827;-23
2023/07/26 08:13:05;;;;;;;5.50;2.80;;;;;;;21.31;72.34;97656.81;105664;1251;74194;-22
2023/07/26 08:15:34;;;;;;;2.90;2.30;;;;;;;21.12;73.18;97663.45;105785;1254;72664;-22
2023/07/26 08:18:01;;;;;;;2.90;2.50;;;;;;;21.33;73.68;97669.45;105713;1253;61093;-22
2023/07/26 08:20:32;;;;;;;4.00;2.80;;;;;;;21.66;72.36;97668.02;105711;1256;61249;-22
2023/07/26 08:23:00;;;;;;;6.50;2.80;;;;;;;21.73;71.10;97672.55;105283;1251;73811;-22
2023/07/26 08:25:29;;;;;;;3.70;2.60;;;;;;;21.60;72.00;97669.81;105623;1258;73232;-22
2023/07/26 08:27:56;;;;;;;7.80;2.90;;;;;;;21.34;73.17;97668.84;105727;1257;71681;-22
2023/07/26 08:30:22;;;;;;;3.40;3.00;;;;;;;21.16;73.34;97664.30;105915;1253;61077;-23
2023/07/26 08:32:49;;;;;;;6.80;2.80;;;;;;;21.00;73.89;97661.74;105835;1256;61100;-22
2023/07/26 08:35:16;;;;;;;3.60;2.00;;;;;;;20.90;74.13;97661.48;105936;1251;73977;-23
2023/07/26 08:37:43;;;;;;;2.90;2.00;;;;;;;21.32;72.84;97655.56;105916;1254;74837;-22
2023/07/26 08:40:11;;;;;;;4.00;2.10;;;;;;;21.81;71.76;97650.68;105873;1251;72442;-22
2023/07/26 08:42:38;;;;;;;3.10;2.40;;;;;;;21.86;71.34;97652.11;105721;1253;61154;-23
2023/07/26 08:45:06;;;;;;;3.50;2.80;;;;;;;21.77;71.29;97662.09;105833;1252;61118;-23
2023/07/26 08:47:33;;;;;;;6.10;2.80;;;;;;;21.60;72.19;97675.50;105543;1253;73827;-22
2023/07/26 08:50:02;;;;;;;4.90;2.80;;;;;;;21.43;73.36;97677.48;105669;1254;74160;-22
2023/07/26 08:52:29;;;;;;;3.80;2.50;;;;;;;21.31;73.71;97682.28;105749;1251;72511;-22
2023/07/26 08:54:56;;;;;;;2.70;1.90;;;;;;;21.18;73.95;97689.55;105877;1251;62053;-23
2023/07/26 08:57:26;;;;;;;3.90;2.00;;;;;;;21.68;73.63;97688.60;105679;1252;61179;-22
2023/07/26 08:59:53;;;;;;;2.90;2.30;;;;;;;22.21;72.30;97674.20;105720;1251;73765;-23
2023/07/26 09:02:20;;;;;;;3.20;2.70;;;;;;;22.27;72.56;97680.31;105909;1256;74174;-22
2023/07/26 09:04:47;;;;;;;4.80;2.60;;;;;;;22.08;71.94;97682.63;105899;1254;72732;-22
2023/07/26 09:07:14;;;;;;;4.30;2.90;;;;;;;21.84;72.92;97688.91;105710;1257;61011;-24
2023/07/26 09:09:41;;;;;;;4.80;2.90;;;;;;;21.62;73.55;97692.54;105922;1253;61131;-22
2023/07/26 09:12:08;;;;;;;3.00;2.40;;;;;;;21.43;74.59;97688.07;105924;1253;74229;-23
2023/07/26 09:14:35;;;;;;;4.70;2.80;;;;;;;21.34;75.33;97689.61;105935;1256;74950;-22
2023/07/26 09:17:03;;;;;;;6.90;2.60;;;;;;;21.81;74.78;97691.27;105826;1251;72753;-22
2023/07/26 09:19:35;;;;;;;4.20;2.80;;;;;;;22.20;72.58;97693.63;105666;1258;61634;-22
2023/07/26 09:22:06;;;;;;;3.50;2.70;;;;;;;22.23;71.65;97690.72;105658;1260;61105;-22
2023/07/26 09:24:35;;;;;;;3.90;3.10;;;;;;;22.05;71.37;97689.55;105729;1253;73784;-22
2023/07/26 09:27:03;;;;;;;4.10;3.10;;;;;;;21.79;71.71;97691.48;105683;1260;72837;-22
2023/07/26 09:31:18;;;;;;;4.60;3.00;;;;;;;21.89;72.78;97686.84;103556;1284;617430;-21
2023/07/26 09:33:44;;;;;;;3.20;2.60;;;;;;;21.95;72.03;97684.48;105096;1270;61011;-21
2023/07/26 09:36:11;;;;;;;2.60;2.10;;;;;;;22.07;73.20;97683.45;105280;1262;61181;-21
2023/07/26 09:38:38;;;;;;;7.50;3.60;;;;;;;22.53;69.23;97666.83;105221;1267;72396;-21
2023/07/26 09:41:21;;;;;;;5.50;2.70;;;;;;;23.06;67.87;97658.08;105262;1268;74825;-22
2023/07/26 09:43:48;;;;;;;4.90;2.60;;;;;;;23.10;66.48;97645.77;103169;1259;2812877;-22
2023/07/26 09:46:15;;;;;;;5.70;3.20;;;;;;;23.08;67.58;97640.92;105283;1263;61135;-22
2023/07/26 09:49:01;;;;;;;3.10;2.80;;;;;;;23.50;67.77;97638.45;105541;1263;61099;-22
2023/07/26 09:51:30;;;;;;;4.60;2.80;;;;;;;24.03;63.87;97644.73;105443;1261;72111;-22
2023/07/26 09:53:59;;;;;;;3.30;2.80;;;;;;;24.32;62.65;97647.79;105255;1261;74316;-22
2023/07/26 09:56:33;;;;;;;4.40;2.90;;;;;;;24.49;62.84;97649.25;105382;1264;72683;-22
2023/07/26 09:58:59;;;;;;;4.20;3.10;;;;;;;24.52;62.04;97651.05;105260;1265;61115;-22
2023/07/26 10:01:29;;;;;;;3.10;2.30;;;;;;;25.13;59.88;97642.61;105390;1259;61176;-22
2023/07/26 10:03:56;;;;;;;6.20;3.00;;;;;;;25.71;59.11;97637.90;105338;1264;74084;-22
2023/07/26 10:06:24;;;;;;;5.40;2.50;;;;;;;25.63;58.69;97646.67;105369;1263;74208;-23
2023/07/26 10:08:51;;;;;;;3.20;2.70;;;;;;;25.00;58.59;97647.50;105540;1260;72632;-22
2023/07/26 10:11:18;;;;;;;4.50;2.70;;;;;;;24.19;61.18;97653.33;105381;1261;61730;-23
2023/07/26 10:13:45;;;;;;;4.40;2.80;;;;;;;23.69;62.23;97653.27;105383;1263;61176;-23
2023/07/26 10:16:12;;;;;;;5.10;2.40;;;;;;;23.37;63.97;97661.53;105224;1261;72801;-22
2023/07/26 10:18:39;;;;;;;3.80;2.30;;;;;;;23.28;65.03;97661.70;105649;1264;74327;-22
2023/07/26 10:21:05;;;;;;;4.40;2.30;;;;;;;23.17;65.36;97659.13;105597;1260;72454;-23
2023/07/26 10:23:32;;;;;;;6.10;2.60;;;;;;;23.11;64.19;97653.18;105477;1257;61088;-22
2023/07/26 10:26:04;;;;;;;4.40;2.50;;;;;;;23.10;63.31;97645.73;105536;1255;61170;-22
2023/07/26 10:28:33;;;;;;;4.60;2.80;;;;;;;23.22;64.46;97640.10;105535;1257;71794;-22
2023/07/26 10:31:00;;;;;;;2.80;2.20;;;;;;;23.40;65.26;97642.55;105473;1263;73233;-22
2023/07/26 10:33:28;;;;;;;3.50;2.20;;;;;;;23.51;62.12;97645.95;105625;1260;72505;-22
2023/07/26 10:35:55;;;;;;;4.00;2.60;;;;;;;23.52;61.49;97640.53;105545;1257;61150;-22
2023/07/26 10:38:22;;;;;;;3.20;2.30;;;;;;;23.56;62.07;97640.30;105557;1262;61196;-22
2023/07/26 10:40:49;;;;;;;3.30;2.70;;;;;;;23.96;62.15;97641.98;105617;1260;73031;-22
2023/07/26 10:43:22;;;;;;;4.20;2.20;;;;;;;24.24;60.93;97649.20;105685;1261;74285;-22
2023/07/26 10:45:49;;;;;;;;;;;;;;;24.07;59.82;97654.31;105913;1254;72512;-22
2023/07/26 10:48:23;;;;;;;10.50;4.30;;;;;;;23.56;60.87;97642.41;105886;1256;61147;-23
2023/07/26 10:50:50;;;;;;;3.80;2.40;;;;;;;23.86;62.45;97634.20;105813;1253;61170;-23
2023/07/26 10:53:31;;;;;;;5.30;2.70;;;;;;;23.88;60.99;97631.67;105793;1255;72940;-22
2023/07/26 10:56:11;;;;;;;6.60;2.50;;;;;;;24.12;59.10;97625.91;105716;1255;74159;-22
2023/07/26 10:58:55;;;;;;;3.50;2.50;;;;;;;24.91;58.17;97629.08;105654;1254;72688;-22
2023/07/26 11:01:30;;;;;;;3.70;2.30;;;;;;;25.45;56.55;97626.30;105678;1259;61138;-23
2023/07/26 11:03:58;;;;;;;3.70;2.10;;;;;;;25.39;55.47;97618.67;105702;1254;60998;-22
2023/07/26 11:06:47;;;;;;;2.50;1.70;;;;;;;25.95;54.72;97618.55;105721;1254;73091;-23
2023/07/26 11:09:31;;;;;;;13.30;3.40;;;;;;;26.09;53.84;97623.19;105884;1254;74893;-22
2023/07/26 11:11:59;;;;;;;2.90;2.10;;;;;;;25.86;52.65;97619.42;105871;1257;71403;-22
2023/07/26 11:14:30;;;;;;;5.60;2.40;;;;;;;25.96;52.69;97614.72;105736;1254;61023;-23
2023/07/26 11:17:02;;;;;;;4.90;2.30;;;;;;;26.41;53.10;97601.22;105704;1260;61130;-23
2023/07/26 11:19:29;;;;;;;5.20;3.60;;;;;;;25.81;51.40;97602.55;105745;1257;71852;-23
2023/07/26 11:22:06;;;;;;;8.70;2.80;;;;;;;25.76;51.95;97604.45;105842;1256;74823;-22
2023/07/26 11:24:33;;;;;;;2.30;1.90;;;;;;;25.62;52.41;97614.62;105846;1254;72637;-23
2023/07/26 11:27:05;;;;;;;2.60;1.90;;;;;;;25.83;53.37;97617.06;105886;1254;61032;-23
2023/07/26 11:29:35;;;;;;;2.00;1.80;;;;;;;26.23;52.48;97621.34;105860;1253;61198;-23